This is the latest recevied weather packets stored in our database for station/object M0HPP-13. If no packets are shown the sender has not sent any weather packets the latest 10 day(s).
| Time | Temp. | Humidity | Pressure | Rain* | Wind** | Luminosity | Snow |
|---|---|---|---|---|---|---|---|
| 1787510886 | 15° C | 80% | 1024.3 hPa | 0 mm | - | 28 W/m² | - |
| 1787510286 | 15° C | 79% | 1024.3 hPa | 0 mm | - | 39 W/m² | - |
| 1787509686 | 15° C | 82% | 1024.3 hPa | 0 mm | - | 45 W/m² | - |
| 1787509086 | 14.44° C | 86% | 1024.3 hPa | 0 mm | - | 42 W/m² | - |
| 1787508486 | 14.44° C | 85% | 1024.4 hPa | 0 mm | - | 41 W/m² | - |
| 1787507886 | 15° C | 81% | 1024.4 hPa | 0 mm | - | 42 W/m² | - |
| 1787507286 | 15.56° C | 77% | 1024.3 hPa | 0 mm | - | 51 W/m² | - |
| 1787506686 | 15.56° C | 77% | 1024.3 hPa | 0 mm | - | 65 W/m² | - |
| 1787506086 | 16.11° C | 74% | 1024.2 hPa | 0 mm | - | 71 W/m² | - |
| 1787505486 | 16.67° C | 71% | 1024.2 hPa | 0 mm | - | 75 W/m² | - |
| 1787504886 | 16.67° C | 70% | 1024.1 hPa | 0 mm | - | 77 W/m² | - |
| 1787504286 | 17.22° C | 69% | 1024.2 hPa | 0 mm | - | 81 W/m² | - |
| 1787503686 | 17.78° C | 70% | 1024.1 hPa | 0 mm | - | 139 W/m² | - |
| 1787503086 | 17.22° C | 70% | 1024.2 hPa | 0 mm | - | 157 W/m² | - |
| 1787502486 | 17.78° C | 69% | 1024.2 hPa | 0 mm | - | 153 W/m² | - |
| 1787501886 | 17.78° C | 70% | 1024.2 hPa | 0 mm | - | 169 W/m² | - |
| 1787501286 | 17.78° C | 70% | 1024.1 hPa | 0 mm | - | 188 W/m² | - |
| 1787500686 | 17.22° C | 73% | 1024.1 hPa | 0 mm | - | 190 W/m² | - |
| 1787500086 | 17.22° C | 74% | 1024.1 hPa | 0 mm | - | 189 W/m² | - |
| 1787499486 | 17.22° C | 73% | 1024.1 hPa | 0 mm | - | 184 W/m² | - |
| 1787498886 | 18.33° C | 69% | 1024.1 hPa | 0 mm | - | 199 W/m² | - |
| 1787498286 | 19.44° C | 62% | 1024.1 hPa | 0 mm | - | 190 W/m² | - |
| 1787497686 | 19.44° C | 62% | 1024 hPa | 0 mm | - | 293 W/m² | - |
| 1787497086 | 17.78° C | 65% | 1024.1 hPa | 0 mm | - | 266 W/m² | - |
| 1787496486 | 18.33° C | 65% | 1024.2 hPa | 0 mm | - | 211 W/m² | - |
* Rain latest hour (hover to see other rain measurements)
** Current wind speed in m/s (hover to see current wind gust speed)